createdAt,value
2018-12-26T00:00:35.141Z,1.80
2018-12-26T00:03:05.033Z,1.80
2018-12-26T00:05:35.160Z,1.80
2018-12-26T00:08:05.119Z,1.70
2018-12-26T00:10:34.880Z,1.80
2018-12-26T00:13:04.703Z,1.80
2018-12-26T00:15:34.780Z,1.70
2018-12-26T00:18:04.816Z,1.80
2018-12-26T00:20:34.611Z,1.70
2018-12-26T00:23:04.377Z,1.70
2018-12-26T00:25:34.504Z,1.70
2018-12-26T00:28:04.237Z,1.60
2018-12-26T00:30:33.971Z,1.60
2018-12-26T00:33:03.864Z,1.60
2018-12-26T00:35:33.793Z,1.60
2018-12-26T00:38:03.631Z,1.50
2018-12-26T00:40:33.343Z,1.60
2018-12-26T00:43:03.134Z,1.50
2018-12-26T00:45:32.871Z,1.50
2018-12-26T00:48:02.612Z,1.50
2018-12-26T00:50:32.772Z,1.50
2018-12-26T00:53:02.557Z,1.50
2018-12-26T00:55:32.352Z,1.50
2018-12-26T00:58:02.759Z,1.40
2018-12-26T01:00:32.544Z,1.40
2018-12-26T01:03:02.374Z,1.40
2018-12-26T01:05:32.270Z,1.40
2018-12-26T01:08:02.752Z,1.40
2018-12-26T01:10:32.631Z,1.40
2018-12-26T01:13:02.477Z,1.40
2018-12-26T01:15:32.193Z,1.40
2018-12-26T01:18:02.076Z,1.40
2018-12-26T01:20:31.798Z,1.40
2018-12-26T01:23:01.698Z,1.40
2018-12-26T01:25:31.410Z,1.40
2018-12-26T01:28:01.251Z,1.40
2018-12-26T01:30:31.983Z,1.50
2018-12-26T01:33:01.799Z,1.40
2018-12-26T01:35:31.600Z,1.40
2018-12-26T01:38:01.448Z,1.40
2018-12-26T01:40:31.265Z,1.40
2018-12-26T01:43:01.220Z,1.30
2018-12-26T01:45:30.904Z,1.30
2018-12-26T01:48:00.784Z,1.30
2018-12-26T01:50:31.135Z,1.20
2018-12-26T01:53:01.043Z,1.20
2018-12-26T01:55:30.765Z,1.20
2018-12-26T01:58:00.622Z,1.20
2018-12-26T02:00:30.410Z,1.20
2018-12-26T02:03:00.896Z,1.20
2018-12-26T02:05:30.752Z,1.20
2018-12-26T02:08:00.592Z,1.10
2018-12-26T02:10:30.597Z,1.10
2018-12-26T02:13:02.564Z,1.20
2018-12-26T02:15:32.375Z,1.30
2018-12-26T02:18:02.062Z,1.20
2018-12-26T02:20:32.681Z,1.20
2018-12-26T02:23:02.438Z,1.20
2018-12-26T02:25:32.140Z,1.20
2018-12-26T02:28:02.071Z,1.20
2018-12-26T02:30:31.975Z,1.10
2018-12-26T02:33:01.856Z,1.10
2018-12-26T02:35:31.907Z,1.10
2018-12-26T02:38:01.667Z,1.10
2018-12-26T02:40:31.522Z,1.10
2018-12-26T02:43:01.373Z,1.00
2018-12-26T02:45:31.342Z,1.00
2018-12-26T02:48:01.267Z,0.90
2018-12-26T02:50:31.251Z,0.90
2018-12-26T02:53:01.159Z,0.90
2018-12-26T02:55:30.971Z,0.90
2018-12-26T02:58:00.739Z,0.90
2018-12-26T03:00:30.634Z,1.00
2018-12-26T03:03:00.488Z,1.00
2018-12-26T03:05:30.613Z,1.00
2018-12-26T03:08:00.963Z,1.00
2018-12-26T03:10:30.786Z,1.00
2018-12-26T03:13:00.805Z,1.00
2018-12-26T03:15:30.703Z,0.90
2018-12-26T03:18:00.599Z,0.90
2018-12-26T03:20:30.318Z,1.00
2018-12-26T03:23:00.126Z,1.00
2018-12-26T03:25:29.958Z,1.00
2018-12-26T03:27:59.689Z,1.10
2018-12-26T03:30:29.432Z,1.10
2018-12-26T03:32:59.135Z,1.10
2018-12-26T03:35:28.917Z,1.00
2018-12-26T03:37:58.704Z,1.00
2018-12-26T03:40:28.869Z,1.00
2018-12-26T03:42:58.675Z,1.00
2018-12-26T03:45:28.864Z,1.10
2018-12-26T03:47:59.338Z,1.20
2018-12-26T03:50:29.130Z,1.20
2018-12-26T03:52:58.960Z,1.20
2018-12-26T03:55:28.948Z,1.30
2018-12-26T03:57:59.398Z,1.30
2018-12-26T04:00:29.280Z,1.20
2018-12-26T04:02:59.221Z,1.10
2018-12-26T04:05:29.140Z,1.10
2018-12-26T04:07:59.288Z,1.10
2018-12-26T04:10:29.248Z,1.10
2018-12-26T04:12:59.026Z,1.10
2018-12-26T04:15:28.933Z,1.20
2018-12-26T04:17:58.766Z,1.20
2018-12-26T04:20:28.758Z,1.20
2018-12-26T04:22:58.652Z,1.20
2018-12-26T04:25:28.803Z,1.10
2018-12-26T04:27:59.668Z,1.10
2018-12-26T04:30:29.387Z,1.20
2018-12-26T04:32:59.116Z,1.20
2018-12-26T04:35:28.890Z,1.30
2018-12-26T04:37:58.817Z,1.40
2018-12-26T04:40:28.692Z,1.40
2018-12-26T04:42:58.518Z,1.50
2018-12-26T04:45:28.797Z,1.60
2018-12-26T04:47:58.596Z,1.70
2018-12-26T04:50:28.433Z,1.80
2018-12-26T04:52:58.249Z,1.80
2018-12-26T04:55:28.097Z,1.80
2018-12-26T04:57:57.805Z,1.90
2018-12-26T05:00:27.627Z,1.90
2018-12-26T05:02:57.575Z,1.90
2018-12-26T05:05:27.382Z,1.90
2018-12-26T05:07:57.205Z,2.00
2018-12-26T05:10:26.993Z,2.00
2018-12-26T05:12:56.809Z,2.00
2018-12-26T05:15:26.659Z,2.00
2018-12-26T05:17:56.567Z,2.00
2018-12-26T05:20:26.660Z,2.10
2018-12-26T05:22:56.622Z,2.10
2018-12-26T05:25:27.487Z,2.10
2018-12-26T05:27:57.303Z,2.10
2018-12-26T05:30:27.103Z,2.20
2018-12-26T05:32:56.963Z,2.30
2018-12-26T05:35:26.780Z,2.30
2018-12-26T05:37:57.511Z,2.30
2018-12-26T05:40:27.293Z,2.30
2018-12-26T05:42:57.056Z,2.30
2018-12-26T05:45:26.851Z,2.40
2018-12-26T05:47:56.628Z,2.40
2018-12-26T05:50:26.372Z,2.50
2018-12-26T05:52:56.211Z,2.50
2018-12-26T05:55:26.662Z,2.50
2018-12-26T05:57:56.461Z,2.50
2018-12-26T06:00:26.364Z,2.50
2018-12-26T06:02:56.174Z,2.50
2018-12-26T06:05:26.030Z,2.50
2018-12-26T06:07:55.837Z,2.60
2018-12-26T06:10:25.702Z,2.60
2018-12-26T06:12:55.434Z,2.60
2018-12-26T06:15:25.149Z,2.60
2018-12-26T06:17:54.910Z,2.60
2018-12-26T06:20:24.754Z,2.70
2018-12-26T06:22:54.703Z,2.60
2018-12-26T06:25:24.464Z,2.70
2018-12-26T06:27:54.289Z,2.70
2018-12-26T06:30:24.109Z,2.70
2018-12-26T06:32:53.845Z,2.70
2018-12-26T06:35:23.773Z,2.70
2018-12-26T06:37:53.612Z,2.80
2018-12-26T06:40:23.410Z,2.80
2018-12-26T06:42:53.157Z,2.80
2018-12-26T06:45:23.016Z,2.80
2018-12-26T06:47:52.814Z,2.80
2018-12-26T06:50:22.561Z,2.80
2018-12-26T06:52:52.312Z,2.80
2018-12-26T06:55:22.716Z,2.80
2018-12-26T06:57:59.876Z,2.90
2018-12-26T07:00:24.054Z,2.90
2018-12-26T07:02:53.883Z,2.80
2018-12-26T07:05:23.621Z,2.90
2018-12-26T07:07:53.341Z,2.80
2018-12-26T07:10:23.185Z,2.80
2018-12-26T07:12:52.977Z,2.80
2018-12-26T07:15:22.829Z,2.80
2018-12-26T07:17:53.515Z,2.80
2018-12-26T07:20:23.277Z,2.80
2018-12-26T07:22:53.035Z,2.80
2018-12-26T07:25:22.733Z,2.80
2018-12-26T07:27:52.520Z,2.80
2018-12-26T07:30:22.269Z,2.80
2018-12-26T07:32:52.031Z,2.80
2018-12-26T07:35:21.929Z,2.90
2018-12-26T07:37:51.669Z,2.90
2018-12-26T07:40:21.472Z,2.90
2018-12-26T07:42:51.247Z,2.90
2018-12-26T07:45:22.173Z,2.90
2018-12-26T07:47:51.898Z,2.90
2018-12-26T07:50:21.592Z,2.90
2018-12-26T07:52:51.400Z,3.00
2018-12-26T07:55:21.186Z,3.10
2018-12-26T07:57:50.951Z,3.10
2018-12-26T08:00:20.654Z,3.10
2018-12-26T08:02:50.509Z,3.10
2018-12-26T08:05:20.324Z,3.20
2018-12-26T08:07:50.265Z,3.20
2018-12-26T08:10:20.117Z,3.20
2018-12-26T08:12:49.979Z,3.20
2018-12-26T08:15:19.697Z,3.10
2018-12-26T08:17:49.505Z,3.10
2018-12-26T08:20:19.550Z,3.20
2018-12-26T08:22:49.421Z,3.20
2018-12-26T08:25:19.258Z,3.10
2018-12-26T08:27:49.106Z,3.20
2018-12-26T08:30:18.962Z,3.30
2018-12-26T08:32:49.501Z,3.30
2018-12-26T08:35:19.237Z,3.30
2018-12-26T08:37:49.084Z,3.40
2018-12-26T08:40:18.889Z,3.40
2018-12-26T08:42:48.633Z,3.40
2018-12-26T08:45:18.896Z,3.50
2018-12-26T08:47:48.675Z,3.40
2018-12-26T08:50:18.444Z,3.50
2018-12-26T08:52:50.248Z,3.50
2018-12-26T08:55:20.146Z,3.50
2018-12-26T08:57:49.928Z,3.50
2018-12-26T09:00:19.789Z,3.50
2018-12-26T09:02:49.577Z,3.50
2018-12-26T09:05:19.952Z,3.60
2018-12-26T09:07:49.705Z,3.60
2018-12-26T09:10:19.577Z,3.70
2018-12-26T09:12:49.449Z,3.70
2018-12-26T09:15:19.209Z,3.80
2018-12-26T09:17:49.129Z,3.90
2018-12-26T09:20:18.895Z,3.90
2018-12-26T09:22:48.686Z,3.90
2018-12-26T09:25:18.443Z,3.90
2018-12-26T09:27:49.571Z,3.90
2018-12-26T09:30:19.416Z,3.90
2018-12-26T09:32:49.313Z,4.00
2018-12-26T09:35:20.973Z,4.00
2018-12-26T09:37:50.549Z,4.00
2018-12-26T09:40:20.860Z,4.00
2018-12-26T09:42:50.602Z,4.00
2018-12-26T09:45:20.335Z,4.10
2018-12-26T09:47:50.214Z,4.10
2018-12-26T09:50:20.029Z,4.10
2018-12-26T09:52:49.851Z,4.00
2018-12-26T09:55:19.765Z,3.90
2018-12-26T09:57:49.632Z,3.90
2018-12-26T10:00:19.462Z,3.90
2018-12-26T10:02:49.671Z,3.90
2018-12-26T10:05:19.890Z,4.00
2018-12-26T10:07:49.733Z,4.00
2018-12-26T10:10:19.667Z,4.00
2018-12-26T10:12:49.451Z,4.10
2018-12-26T10:15:19.481Z,4.20
2018-12-26T10:17:49.424Z,4.20
2018-12-26T10:20:19.607Z,4.30
2018-12-26T10:22:49.368Z,4.20
2018-12-26T10:25:19.267Z,4.30
2018-12-26T10:27:49.477Z,4.30
2018-12-26T10:30:19.472Z,4.30
2018-12-26T10:32:49.564Z,4.40
2018-12-26T10:35:20.433Z,4.50
2018-12-26T10:37:50.356Z,4.70
2018-12-26T10:40:20.075Z,4.80
2018-12-26T10:42:49.934Z,4.70
2018-12-26T10:45:19.813Z,4.80
2018-12-26T10:47:50.028Z,5.10
2018-12-26T10:50:19.836Z,5.10
2018-12-26T10:52:49.721Z,5.10
2018-12-26T10:55:19.669Z,5.10
2018-12-26T10:57:49.508Z,5.10
2018-12-26T11:00:19.371Z,5.10
2018-12-26T11:02:49.350Z,5.20
2018-12-26T11:05:19.038Z,5.10
2018-12-26T11:07:48.867Z,5.10
2018-12-26T11:10:18.722Z,5.00
2018-12-26T11:12:49.681Z,5.10
2018-12-26T11:15:19.477Z,5.00
2018-12-26T11:17:49.389Z,4.90
2018-12-26T11:20:19.184Z,5.00
2018-12-26T11:22:49.058Z,5.00
2018-12-26T11:25:19.861Z,5.00
2018-12-26T11:27:50.154Z,5.00
2018-12-26T11:30:19.982Z,4.90
2018-12-26T11:32:49.938Z,4.90
2018-12-26T11:35:19.703Z,5.00
2018-12-26T11:37:49.583Z,5.00
2018-12-26T11:40:19.489Z,5.00
2018-12-26T11:42:49.300Z,5.00
2018-12-26T11:45:19.192Z,5.00
2018-12-26T11:47:49.255Z,5.10
2018-12-26T11:50:19.083Z,5.10
2018-12-26T11:52:49.549Z,5.10
2018-12-26T11:55:19.363Z,5.10
2018-12-26T11:57:49.434Z,5.10
2018-12-26T12:00:19.371Z,5.10
2018-12-26T12:02:49.295Z,5.00
2018-12-26T12:05:19.375Z,5.10
2018-12-26T12:07:49.502Z,5.10
2018-12-26T12:10:19.414Z,5.10
2018-12-26T12:12:49.383Z,5.00
2018-12-26T12:15:19.310Z,5.00
2018-12-26T12:17:49.555Z,4.90
2018-12-26T12:20:19.449Z,4.90
2018-12-26T12:22:49.472Z,5.00
2018-12-26T12:25:19.493Z,5.00
2018-12-26T12:27:49.566Z,5.10
2018-12-26T12:30:19.708Z,5.10
2018-12-26T12:32:50.032Z,5.30
2018-12-26T12:35:20.071Z,5.30
2018-12-26T12:37:50.511Z,5.40
2018-12-26T12:40:20.472Z,5.60
2018-12-26T12:42:50.625Z,5.80
2018-12-26T12:45:20.750Z,5.80
2018-12-26T12:47:50.732Z,5.80
2018-12-26T12:50:20.677Z,5.90
2018-12-26T12:52:50.457Z,5.80
2018-12-26T12:55:20.353Z,5.90
2018-12-26T12:57:50.418Z,5.90
2018-12-26T13:00:20.773Z,5.80
2018-12-26T13:02:50.872Z,5.80
2018-12-26T13:05:20.735Z,5.70
2018-12-26T13:07:53.658Z,5.60
2018-12-26T13:10:24.497Z,5.70
2018-12-26T13:12:54.603Z,5.70
2018-12-26T13:15:24.649Z,5.60
2018-12-26T13:17:58.323Z,5.60
2018-12-26T13:20:28.030Z,5.60
2018-12-26T13:22:58.774Z,5.70
2018-12-26T13:25:28.691Z,5.70
2018-12-26T13:28:09.655Z,5.70
2018-12-26T13:30:40.881Z,5.70
2018-12-26T13:33:12.710Z,5.80
2018-12-26T13:35:48.002Z,5.80
2018-12-26T13:38:19.192Z,5.90
2018-12-26T13:40:48.963Z,5.90
2018-12-26T13:43:21.855Z,5.80
2018-12-26T13:45:53.133Z,5.90
2018-12-26T13:48:23.106Z,5.80
2018-12-26T13:50:52.857Z,5.80
2018-12-26T13:53:22.682Z,5.80
2018-12-26T13:55:52.556Z,5.80
2018-12-26T13:58:22.416Z,5.80
2018-12-26T14:00:52.198Z,5.80
2018-12-26T14:03:22.211Z,5.80
2018-12-26T14:05:52.324Z,5.80
2018-12-26T14:08:22.282Z,6.60
2018-12-26T14:10:52.070Z,5.90
2018-12-26T14:13:22.908Z,6.00
2018-12-26T14:15:52.764Z,6.00
2018-12-26T14:18:22.628Z,5.90
2018-12-26T14:20:52.517Z,5.80
2018-12-26T14:23:22.438Z,5.80
2018-12-26T14:25:52.558Z,5.80
2018-12-26T14:28:22.290Z,5.80
2018-12-26T14:30:52.205Z,5.80
2018-12-26T14:33:22.293Z,5.80
2018-12-26T14:35:58.004Z,5.70
2018-12-26T14:38:28.154Z,5.60
2018-12-26T14:40:58.113Z,5.50
2018-12-26T14:43:28.094Z,5.60
2018-12-26T14:45:58.947Z,5.60
2018-12-26T14:48:29.854Z,5.50
2018-12-26T14:50:59.579Z,5.50
2018-12-26T14:53:29.795Z,5.60
2018-12-26T14:55:59.840Z,5.70
2018-12-26T14:58:29.928Z,5.60
2018-12-26T15:00:59.959Z,5.60
2018-12-26T15:03:29.832Z,5.60
2018-12-26T15:06:00.362Z,5.50
2018-12-26T15:08:30.451Z,5.60
2018-12-26T15:11:00.376Z,5.60
2018-12-26T15:13:30.361Z,5.60
2018-12-26T15:16:00.210Z,5.50
2018-12-26T15:18:30.440Z,5.50
2018-12-26T15:21:00.570Z,5.50
2018-12-26T15:23:30.659Z,5.50
2018-12-26T15:26:00.435Z,5.50
2018-12-26T15:28:30.314Z,5.50
2018-12-26T15:31:00.258Z,5.50
2018-12-26T15:33:29.969Z,5.50
2018-12-26T15:36:00.118Z,5.50
2018-12-26T15:38:30.151Z,5.50
2018-12-26T15:40:59.967Z,5.50
2018-12-26T15:43:29.890Z,5.50
2018-12-26T15:45:59.781Z,5.50
2018-12-26T15:48:29.659Z,5.50
2018-12-26T15:50:59.635Z,5.50
2018-12-26T15:53:29.429Z,5.50
2018-12-26T15:55:59.478Z,5.50
2018-12-26T15:58:30.041Z,5.60
2018-12-26T16:00:59.934Z,5.50
2018-12-26T16:03:30.020Z,5.50
2018-12-26T16:05:59.801Z,5.50
2018-12-26T16:08:29.628Z,5.50
2018-12-26T16:10:59.537Z,5.50
2018-12-26T16:13:29.348Z,5.40
2018-12-26T16:15:59.145Z,5.40
2018-12-26T16:18:31.237Z,5.30
2018-12-26T16:21:01.327Z,5.30
2018-12-26T16:23:31.294Z,5.30
2018-12-26T16:26:01.321Z,5.30
2018-12-26T16:28:31.259Z,5.40
2018-12-26T16:31:02.268Z,5.40
2018-12-26T16:33:32.181Z,5.40
2018-12-26T16:36:02.081Z,5.40
2018-12-26T16:38:32.102Z,5.40
2018-12-26T16:41:02.100Z,5.40
2018-12-26T16:43:31.899Z,5.40
2018-12-26T16:46:01.834Z,5.30
2018-12-26T16:48:31.907Z,5.30
2018-12-26T16:51:01.844Z,5.40
2018-12-26T16:53:31.809Z,5.40
2018-12-26T16:56:07.287Z,5.40
2018-12-26T16:58:38.379Z,5.40
2018-12-26T17:01:09.362Z,5.40
2018-12-26T17:03:39.325Z,5.40
2018-12-26T17:06:10.183Z,5.50
2018-12-26T17:08:40.179Z,5.50
2018-12-26T17:11:10.018Z,5.40
2018-12-26T17:13:40.578Z,5.40
2018-12-26T17:16:10.588Z,5.40
2018-12-26T17:18:40.832Z,5.40
2018-12-26T17:21:10.699Z,5.40
2018-12-26T17:23:40.606Z,5.40
2018-12-26T17:26:10.724Z,5.40
2018-12-26T17:28:40.833Z,5.50
2018-12-26T17:31:12.347Z,5.40
2018-12-26T17:33:42.426Z,5.40
2018-12-26T17:36:12.506Z,5.40
2018-12-26T17:38:42.456Z,5.40
2018-12-26T17:41:12.488Z,5.50
2018-12-26T17:43:42.510Z,5.40
2018-12-26T17:46:12.463Z,5.40
2018-12-26T17:48:42.388Z,5.30
2018-12-26T17:51:18.672Z,5.20
2018-12-26T17:54:13.651Z,5.20
2018-12-26T17:56:56.596Z,5.10
2018-12-26T17:59:59.257Z,5.00
2018-12-26T18:02:34.222Z,4.90
2018-12-26T18:05:04.067Z,4.80
2018-12-26T18:07:34.204Z,4.80
2018-12-26T18:10:04.848Z,4.70
2018-12-26T18:12:34.768Z,4.70
2018-12-26T18:15:05.937Z,4.60
2018-12-26T18:17:36.749Z,4.60
2018-12-26T18:20:09.146Z,4.60
2018-12-26T18:22:39.197Z,4.50
2018-12-26T18:25:09.283Z,4.50
2018-12-26T18:27:39.178Z,4.50
2018-12-26T18:30:10.628Z,4.40
2018-12-26T18:32:40.596Z,4.40
2018-12-26T18:35:11.089Z,4.40
2018-12-26T18:37:41.010Z,4.40
2018-12-26T18:40:10.919Z,4.30
2018-12-26T18:42:40.942Z,4.30
2018-12-26T18:45:11.190Z,4.30
2018-12-26T18:47:41.221Z,4.30
2018-12-26T18:50:11.445Z,4.20
2018-12-26T18:52:41.362Z,4.20
2018-12-26T18:55:11.396Z,4.10
2018-12-26T18:57:41.298Z,4.10
2018-12-26T19:00:12.095Z,4.10
2018-12-26T19:02:42.067Z,4.00
2018-12-26T19:05:12.437Z,4.00
2018-12-26T19:07:42.646Z,4.00
2018-12-26T19:10:12.592Z,4.00
2018-12-26T19:12:43.168Z,4.00
2018-12-26T19:15:13.202Z,4.00
2018-12-26T19:17:43.995Z,4.10
2018-12-26T19:20:14.038Z,4.10
2018-12-26T19:22:44.236Z,4.20
2018-12-26T19:25:14.229Z,4.20
2018-12-26T19:27:44.140Z,4.30
2018-12-26T19:30:14.140Z,4.60
2018-12-26T19:32:44.123Z,4.30
2018-12-26T19:35:14.890Z,4.30
2018-12-26T19:37:44.920Z,4.30
2018-12-26T19:40:14.681Z,4.30
2018-12-26T19:42:44.472Z,4.20
2018-12-26T19:45:14.503Z,4.20
2018-12-26T19:47:44.331Z,4.20
2018-12-26T19:50:14.264Z,4.20
2018-12-26T19:52:44.114Z,4.20
2018-12-26T19:55:14.025Z,4.20
2018-12-26T19:57:44.062Z,4.10
2018-12-26T20:00:14.130Z,4.10
2018-12-26T20:02:44.146Z,4.10
2018-12-26T20:05:14.179Z,4.10
2018-12-26T20:07:44.245Z,4.20
2018-12-26T20:10:14.316Z,4.20
2018-12-26T20:12:44.335Z,4.10
2018-12-26T20:15:14.344Z,4.20
2018-12-26T20:17:44.174Z,4.10
2018-12-26T20:20:14.121Z,4.10
2018-12-26T20:22:44.892Z,4.10
2018-12-26T20:25:14.805Z,4.10
2018-12-26T20:27:44.695Z,4.00
2018-12-26T20:30:14.821Z,3.90
2018-12-26T20:32:45.841Z,3.90
2018-12-26T20:35:15.891Z,3.90
2018-12-26T20:37:46.023Z,3.80
2018-12-26T20:40:15.938Z,3.80
2018-12-26T20:42:46.158Z,3.80
2018-12-26T20:45:17.244Z,3.80
2018-12-26T20:47:47.163Z,3.80
2018-12-26T20:50:17.228Z,3.80
2018-12-26T20:52:47.177Z,3.10
2018-12-26T20:55:17.134Z,3.90
2018-12-26T20:57:47.125Z,3.90
2018-12-26T21:00:17.027Z,3.90
2018-12-26T21:02:46.829Z,3.90
2018-12-26T21:05:16.787Z,3.80
2018-12-26T21:07:46.826Z,3.80
2018-12-26T21:10:16.623Z,3.80
2018-12-26T21:12:46.443Z,3.80
2018-12-26T21:15:16.404Z,3.70
2018-12-26T21:17:46.276Z,3.80
2018-12-26T21:20:16.179Z,3.80
2018-12-26T21:22:46.128Z,3.80
2018-12-26T21:25:16.097Z,3.90
2018-12-26T21:27:46.802Z,3.90
2018-12-26T21:30:16.947Z,3.80
2018-12-26T21:32:46.831Z,3.90
2018-12-26T21:35:16.870Z,4.00
2018-12-26T21:37:46.747Z,3.90
2018-12-26T21:40:16.598Z,3.90
2018-12-26T21:42:46.772Z,3.80
2018-12-26T21:45:16.647Z,3.80
2018-12-26T21:47:46.772Z,3.90
2018-12-26T21:50:16.737Z,3.90
2018-12-26T21:52:46.777Z,3.90
2018-12-26T21:55:16.658Z,3.90
2018-12-26T21:57:46.504Z,3.90
2018-12-26T22:00:16.240Z,3.90
2018-12-26T22:02:46.119Z,3.70
2018-12-26T22:05:16.868Z,3.80
2018-12-26T22:07:46.876Z,3.70
2018-12-26T22:10:16.986Z,3.70
2018-12-26T22:12:46.909Z,3.70
2018-12-26T22:15:16.828Z,3.80
2018-12-26T22:17:47.838Z,3.80
2018-12-26T22:20:17.749Z,4.20
2018-12-26T22:22:47.541Z,3.80
2018-12-26T22:25:17.377Z,3.80
2018-12-26T22:27:47.302Z,3.80
2018-12-26T22:30:17.187Z,3.80
2018-12-26T22:32:47.048Z,3.90
2018-12-26T22:35:16.772Z,3.80
2018-12-26T22:37:51.638Z,3.90
2018-12-26T22:40:21.411Z,3.80
2018-12-26T22:42:51.242Z,3.80
2018-12-26T22:45:20.992Z,3.90
2018-12-26T22:47:51.774Z,3.90
2018-12-26T22:50:21.624Z,3.90
2018-12-26T22:52:52.455Z,3.90
2018-12-26T22:55:23.355Z,3.80
2018-12-26T22:57:54.443Z,3.80
2018-12-26T23:00:40.992Z,3.70
2018-12-26T23:03:10.806Z,3.80
2018-12-26T23:05:40.730Z,3.80
2018-12-26T23:08:10.849Z,3.90
2018-12-26T23:10:40.741Z,3.80
2018-12-26T23:13:10.638Z,3.80
2018-12-26T23:15:40.415Z,3.80
2018-12-26T23:18:10.225Z,3.80
2018-12-26T23:20:40.143Z,3.90
2018-12-26T23:23:10.167Z,3.90
2018-12-26T23:25:40.180Z,3.80
2018-12-26T23:28:10.209Z,3.90
2018-12-26T23:30:40.146Z,3.90
2018-12-26T23:33:09.983Z,3.90
2018-12-26T23:35:41.007Z,3.90
2018-12-26T23:38:10.838Z,3.90
2018-12-26T23:40:40.698Z,3.90
2018-12-26T23:43:10.723Z,3.90
2018-12-26T23:45:40.738Z,3.80
2018-12-26T23:48:10.584Z,4.00
2018-12-26T23:50:42.454Z,4.00
2018-12-26T23:53:12.316Z,3.80
2018-12-26T23:55:42.173Z,3.80
2018-12-26T23:58:12.148Z,3.80
